Pigalopp — LG3587 — position and weather

sailwx.info

Track history (hours):
 
Tides and Currents Weather Stations Pressure Air Temp Water Temp Dewpoint Dewpoint Depression Visibility Wind Speed Wind Dir Waves Ship Positions

Pigalopp

Last reported at 2016-Sep-11 16:30 UTC. Time now 2016-Sep-25 07:11 UTC.
Position N 58°59' E 005°44'.
Warning: this ship's position is 13 days out of date.

Length 13 m.

Type: Sailing vessel. MMSI: 257735890.

Date/timePositionNaut miles runAvg speedWind from/ knotsBaromVisibWave heightAir tempDewpointWater temp
2016-Sep-11 16:30N 58°59' E 005°44'1 0.9
2016-Sep-11 15:33N 58°59' E 005°45'6 6.5
2016-Sep-11 14:33N 59°02' E 005°34'6 6.4
2016-Sep-11 13:33N 58°56' E 005°32'6 5.9
2016-Sep-11 12:33N 58°50' E 005°29'7 7.2
2016-Sep-11 11:33N 58°43' E 005°29'20 6.4
2016-Sep-11 08:25N 58°28' E 005°54'3 3.5
2016-Sep-11 07:33N 58°27' E 006°00'0 0.0
2016-Sep-11 03:33N 58°27' E 006°00'0 0.0
2016-Sep-11 02:33N 58°27' E 006°00'0 0.0
2016-Sep-11 01:33N 58°27' E 006°00'0 0.0
2016-Sep-11 00:33N 58°27' E 006°00'0 0.0
2016-Sep-10 23:33N 58°27' E 006°00'0 0.0
2016-Sep-10 22:33N 58°27' E 006°00'0 0.0
2016-Sep-10 21:33N 58°27' E 006°00'0 0.0
2016-Sep-10 20:33N 58°27' E 006°00'0 0.0
2016-Sep-10 19:33N 58°27' E 006°00'0 0.0
2016-Sep-10 18:32N 58°27' E 006°00'2 2.1
2016-Sep-10 17:33N 58°25' E 005°60'13 6.5
2016-Sep-10 15:31N 58°15' E 006°15'8 7.6
2016-Sep-10 14:32N 58°10' E 006°26'7 7.4
2016-Sep-10 13:33N 58°05' E 006°36'8 7.9
2016-Sep-10 12:33N 58°01' E 006°49'  
Track history (hours):
 
Tides and Currents Weather Stations Pressure Air Temp Water Temp Dewpoint Dewpoint Depression Visibility Wind Speed Wind Dir Waves Ship Positions

Pigalopp

Last reported at 2016-Sep-11 16:30 UTC. Time now 2016-Sep-25 07:11 UTC.
Position N 58°59' E 005°44'.
Warning: this ship's position is 13 days out of date.

Length 13 m.

Type: Sailing vessel. MMSI: 257735890.

Date/timePositionNaut miles runAvg speedWind from/ knotsBaromVisibWave heightAir tempDewpointWater temp
2016-Sep-11 16:30N 58°59' E 005°44'1 0.9
2016-Sep-11 15:33N 58°59' E 005°45'6 6.5
2016-Sep-11 14:33N 59°02' E 005°34'6 6.4
2016-Sep-11 13:33N 58°56' E 005°32'6 5.9
2016-Sep-11 12:33N 58°50' E 005°29'7 7.2
2016-Sep-11 11:33N 58°43' E 005°29'20 6.4
2016-Sep-11 08:25N 58°28' E 005°54'3 3.5
2016-Sep-11 07:33N 58°27' E 006°00'0 0.0
2016-Sep-11 03:33N 58°27' E 006°00'0 0.0
2016-Sep-11 02:33N 58°27' E 006°00'0 0.0
2016-Sep-11 01:33N 58°27' E 006°00'0 0.0
2016-Sep-11 00:33N 58°27' E 006°00'0 0.0
2016-Sep-10 23:33N 58°27' E 006°00'0 0.0
2016-Sep-10 22:33N 58°27' E 006°00'0 0.0
2016-Sep-10 21:33N 58°27' E 006°00'0 0.0
2016-Sep-10 20:33N 58°27' E 006°00'0 0.0
2016-Sep-10 19:33N 58°27' E 006°00'0 0.0
2016-Sep-10 18:32N 58°27' E 006°00'2 2.1
2016-Sep-10 17:33N 58°25' E 005°60'13 6.5
2016-Sep-10 15:31N 58°15' E 006°15'8 7.6
2016-Sep-10 14:32N 58°10' E 006°26'7 7.4
2016-Sep-10 13:33N 58°05' E 006°36'8 7.9
2016-Sep-10 12:33N 58°01' E 006°49'  

Dump ship's entire track history